createdAt,value
2024-01-17T00:00:52.307Z,100244.44
2024-01-17T00:03:19.029Z,100247.91
2024-01-17T00:05:45.628Z,100249.59
2024-01-17T00:08:12.222Z,100241.09
2024-01-17T00:10:38.667Z,100229.19
2024-01-17T00:13:05.144Z,100222.47
2024-01-17T00:15:31.830Z,100213.84
2024-01-17T00:17:58.385Z,100206.22
2024-01-17T00:20:24.987Z,100192.66
2024-01-17T00:22:51.668Z,100197.06
2024-01-17T00:25:18.303Z,100198.75
2024-01-17T00:27:45.055Z,100199.03
2024-01-17T00:30:11.863Z,100195.81
2024-01-17T00:32:38.627Z,100183.81
2024-01-17T00:35:05.628Z,100192.47
2024-01-17T00:37:32.113Z,100177.88
2024-01-17T00:39:58.631Z,100183.97
2024-01-17T00:42:27.513Z,100173.63
2024-01-17T00:44:55.091Z,100171.81
2024-01-17T00:47:21.768Z,100171.03
2024-01-17T00:49:48.353Z,100162.53
2024-01-17T00:52:14.810Z,100163.28
2024-01-17T00:54:41.203Z,100161.63
2024-01-17T00:57:07.748Z,100163.28
2024-01-17T00:59:34.283Z,100150.38
2024-01-17T01:02:03.137Z,100151.88
2024-01-17T01:04:29.696Z,100144.13
2024-01-17T01:06:56.144Z,100145.13
2024-01-17T01:09:22.634Z,100137.44
2024-01-17T01:11:49.172Z,100145.28
2024-01-17T01:14:15.710Z,100139.28
2024-01-17T01:16:43.422Z,100131.66
2024-01-17T01:19:10.217Z,100129.97
2024-01-17T01:21:36.844Z,100132.56
2024-01-17T01:24:03.526Z,100127.59
2024-01-17T01:26:30.060Z,100112.25
2024-01-17T01:28:57.935Z,100112.47
2024-01-17T01:31:24.523Z,100110.94
2024-01-17T01:33:51.102Z,100107.59
2024-01-17T01:36:17.660Z,100093.16
2024-01-17T01:38:44.136Z,100099.22
2024-01-17T01:41:10.605Z,100090.72
2024-01-17T01:43:37.043Z,100081.22
2024-01-17T01:46:22.097Z,100082.22
2024-01-17T01:48:50.140Z,100074.66
2024-01-17T01:51:17.100Z,100070.50
2024-01-17T01:53:45.755Z,100070.63
2024-01-17T01:56:14.693Z,100074.94
2024-01-17T01:58:44.547Z,100081.09
2024-01-17T02:01:12.495Z,100065.72
2024-01-17T02:03:42.352Z,100060.72
2024-01-17T02:06:08.860Z,100063.22
2024-01-17T02:08:35.887Z,100054.50
2024-01-17T02:11:02.672Z,100048.56
2024-01-17T02:15:57.493Z,100050.41
2024-01-17T02:18:24.044Z,100044.47
2024-01-17T02:20:50.551Z,100044.59
2024-01-17T02:23:25.233Z,100037.84
2024-01-17T02:25:52.542Z,100035.28
2024-01-17T02:28:19.028Z,100030.16
2024-01-17T02:30:46.032Z,100019.91
2024-01-17T02:33:17.506Z,100009.66
2024-01-17T02:35:44.323Z,100008.00
2024-01-17T02:38:11.199Z,100008.13
2024-01-17T02:40:38.031Z,100008.28
2024-01-17T02:43:05.261Z,99992.91
2024-01-17T02:45:32.451Z,99992.16
2024-01-17T02:47:59.627Z,99982.75
2024-01-17T02:50:27.093Z,99981.09
2024-01-17T02:52:53.836Z,99976.06
2024-01-17T02:55:20.441Z,99971.03
2024-01-17T02:57:47.128Z,99974.47
2024-01-17T03:00:13.837Z,99962.56
2024-01-17T03:02:40.465Z,99960.84
2024-01-17T03:05:08.503Z,99947.06
2024-01-17T03:07:34.971Z,99941.13
2024-01-17T03:10:01.424Z,99945.38
2024-01-17T03:12:27.881Z,99943.66
2024-01-17T03:14:54.496Z,99947.06
2024-01-17T03:17:21.431Z,99950.41
2024-01-17T03:19:48.537Z,99941.75
2024-01-17T03:22:18.208Z,99933.09
2024-01-17T03:24:47.166Z,99932.97
2024-01-17T03:27:14.451Z,99920.97
2024-01-17T03:29:41.083Z,99916.56
2024-01-17T03:32:07.625Z,99914.00
2024-01-17T03:34:34.176Z,99920.81
2024-01-17T03:37:00.726Z,99911.25
2024-01-17T03:39:27.603Z,99907.75
2024-01-17T03:41:54.025Z,99900.94
2024-01-17T03:44:20.486Z,99910.34
2024-01-17T03:46:46.888Z,99887.97
2024-01-17T03:49:13.561Z,99877.69
2024-01-17T03:51:39.985Z,99888.03
2024-01-17T03:54:07.335Z,99882.28
2024-01-17T03:56:33.832Z,99869.38
2024-01-17T03:59:00.415Z,99866.91
2024-01-17T04:01:26.987Z,99865.25
2024-01-17T04:03:55.193Z,99859.34
2024-01-17T04:06:21.668Z,99853.47
2024-01-17T04:08:48.092Z,99848.47
2024-01-17T04:11:14.524Z,99833.00
2024-01-17T04:13:43.790Z,99829.59
2024-01-17T04:16:10.256Z,99821.97
2024-01-17T04:18:38.431Z,99822.16
2024-01-17T04:21:05.460Z,99810.28
2024-01-17T04:23:32.010Z,99806.97
2024-01-17T04:25:58.477Z,99805.44
2024-01-17T04:28:24.974Z,99796.94
2024-01-17T04:30:51.414Z,99794.34
2024-01-17T04:33:17.992Z,99788.41
2024-01-17T04:35:44.501Z,99791.78
2024-01-17T04:38:10.944Z,99787.53
2024-01-17T04:40:37.382Z,99783.13
2024-01-17T04:43:04.029Z,99777.28
2024-01-17T04:45:31.658Z,99770.22
2024-01-17T04:47:58.222Z,99777.13
2024-01-17T04:50:24.883Z,99776.31
2024-01-17T04:52:51.571Z,99764.31
2024-01-17T04:55:18.090Z,99772.94
2024-01-17T04:57:44.537Z,99755.69
2024-01-17T05:00:13.798Z,99748.84
2024-01-17T05:02:40.468Z,99749.69
2024-01-17T05:05:07.261Z,99742.00
2024-01-17T05:07:33.762Z,99735.25
2024-01-17T05:10:00.415Z,99733.69
2024-01-17T05:12:26.890Z,99733.69
2024-01-17T05:14:53.378Z,99726.81
2024-01-17T05:17:19.871Z,99725.16
2024-01-17T05:19:46.634Z,99727.81
2024-01-17T05:22:15.493Z,99724.41
2024-01-17T05:24:42.184Z,99707.19
2024-01-17T05:27:08.720Z,99699.53
2024-01-17T05:29:39.098Z,99701.38
2024-01-17T05:32:06.707Z,99685.13
2024-01-17T05:34:33.181Z,99680.75
2024-01-17T05:36:59.664Z,99679.88
2024-01-17T05:39:26.121Z,99682.53
2024-01-17T05:41:52.625Z,99673.88
2024-01-17T05:44:19.075Z,99671.31
2024-01-17T05:46:46.009Z,99667.91
2024-01-17T05:49:12.753Z,99659.50
2024-01-17T05:51:39.208Z,99660.41
2024-01-17T05:54:06.286Z,99653.56
2024-01-17T05:56:32.855Z,99641.59
2024-01-17T05:58:59.317Z,99632.19
2024-01-17T06:01:25.737Z,99633.09
2024-01-17T06:03:52.191Z,99622.06
2024-01-17T06:06:18.761Z,99616.13
2024-01-17T06:08:45.277Z,99621.28
2024-01-17T06:11:11.701Z,99619.59
2024-01-17T06:13:38.154Z,99612.78
2024-01-17T06:16:04.825Z,99603.31
2024-01-17T06:18:31.368Z,99593.00
2024-01-17T06:20:57.822Z,99597.31
2024-01-17T06:23:24.292Z,99581.09
2024-01-17T06:25:50.701Z,99590.50
2024-01-17T06:28:19.281Z,99581.84
2024-01-17T06:30:45.951Z,99584.34
2024-01-17T06:33:12.660Z,99584.34
2024-01-17T06:35:39.488Z,99573.22
2024-01-17T06:38:05.966Z,99567.09
2024-01-17T06:40:33.462Z,99567.91
2024-01-17T06:42:59.866Z,99566.25
2024-01-17T06:45:26.655Z,99558.44
2024-01-17T06:47:53.171Z,99558.53
2024-01-17T06:50:20.146Z,99558.56
2024-01-17T06:52:46.706Z,99547.34
2024-01-17T06:55:14.533Z,99554.94
2024-01-17T06:57:42.182Z,99550.63
2024-01-17T07:00:09.312Z,99544.63
2024-01-17T07:02:35.848Z,99537.81
2024-01-17T07:05:03.173Z,99532.47
2024-01-17T07:07:29.734Z,99543.72
2024-01-17T07:09:56.139Z,99538.47
2024-01-17T07:12:22.801Z,99529.81
2024-01-17T07:14:49.715Z,99520.28
2024-01-17T07:17:16.750Z,99531.34
2024-01-17T07:19:43.189Z,99528.66
2024-01-17T07:22:10.847Z,99529.50
2024-01-17T07:24:37.229Z,99529.50
2024-01-17T07:27:03.979Z,99525.25
2024-01-17T07:29:30.430Z,99529.38
2024-01-17T07:31:56.922Z,99522.53
2024-01-17T07:34:23.887Z,99521.72
2024-01-17T07:36:52.779Z,99520.88
2024-01-17T07:39:22.420Z,99518.31
2024-01-17T07:41:49.202Z,99515.72
2024-01-17T07:44:15.891Z,99510.56
2024-01-17T07:46:42.311Z,99507.91
2024-01-17T07:49:09.005Z,99506.16
2024-01-17T07:51:35.959Z,99508.66
2024-01-17T07:54:02.507Z,99502.66
2024-01-17T07:56:29.032Z,99492.25
2024-01-17T07:58:55.772Z,99496.44
2024-01-17T08:01:22.229Z,99485.22
2024-01-17T08:03:48.817Z,99498.75
2024-01-17T08:06:15.317Z,99491.78
2024-01-17T08:08:41.946Z,99495.75
2024-01-17T08:11:08.332Z,99480.28
2024-01-17T08:13:35.607Z,99471.47
2024-01-17T08:16:02.078Z,99472.22
2024-01-17T08:18:28.649Z,99463.59
2024-01-17T08:20:55.239Z,99461.66
2024-01-17T08:23:21.611Z,99458.84
2024-01-17T08:25:48.314Z,99451.84
2024-01-17T08:28:15.019Z,99443.88
2024-01-17T08:30:41.574Z,99442.84
2024-01-17T08:33:08.170Z,99444.34
2024-01-17T08:35:35.039Z,99444.34
2024-01-17T08:38:01.610Z,99454.50
2024-01-17T08:40:28.045Z,99438.97
2024-01-17T08:42:54.551Z,99426.69
2024-01-17T08:45:21.114Z,99428.19
2024-01-17T08:47:47.677Z,99425.44
2024-01-17T08:50:15.071Z,99431.19
2024-01-17T08:52:41.491Z,99427.66
2024-01-17T08:55:10.001Z,99429.19
2024-01-17T08:57:38.593Z,99421.16
2024-01-17T09:00:07.376Z,99415.56
2024-01-17T09:02:36.688Z,99413.00
2024-01-17T09:05:03.969Z,99412.72
2024-01-17T09:07:33.368Z,99412.72
2024-01-17T09:10:00.379Z,99407.38
2024-01-17T09:12:27.078Z,99404.88
2024-01-17T09:14:56.011Z,99398.63
2024-01-17T09:17:22.740Z,99400.28
2024-01-17T09:19:49.325Z,99389.78
2024-01-17T09:22:15.868Z,99382.56
2024-01-17T09:24:42.577Z,99382.22
2024-01-17T09:27:09.233Z,99376.06
2024-01-17T09:29:36.829Z,99374.88
2024-01-17T09:32:04.596Z,99365.38
2024-01-17T09:34:34.166Z,99355.28
2024-01-17T09:37:02.047Z,99352.34
2024-01-17T09:39:30.087Z,99350.31
2024-01-17T09:41:58.933Z,99346.44
2024-01-17T09:44:25.908Z,99356.13
2024-01-17T09:46:52.658Z,99355.03
2024-01-17T09:49:20.277Z,99348.19
2024-01-17T09:51:47.659Z,99350.41
2024-01-17T09:54:16.941Z,99356.56
2024-01-17T09:56:44.460Z,99348.19
2024-01-17T09:59:16.295Z,99343.59
2024-01-17T10:01:44.576Z,99341.09
2024-01-17T10:04:15.485Z,99340.69
2024-01-17T10:06:45.591Z,99332.75
2024-01-17T10:09:13.469Z,99337.53
2024-01-17T10:11:40.352Z,99328.13
2024-01-17T10:14:08.764Z,99322.38
2024-01-17T10:16:36.546Z,99334.72
2024-01-17T10:19:05.521Z,99325.59
2024-01-17T10:21:34.441Z,99326.13
2024-01-17T10:24:01.660Z,99321.00
2024-01-17T10:26:28.225Z,99319.50
2024-01-17T10:28:54.678Z,99306.34
2024-01-17T10:31:24.586Z,99315.44
2024-01-17T10:33:55.092Z,99301.81
2024-01-17T10:36:22.736Z,99293.78
2024-01-17T10:38:50.788Z,99287.50
2024-01-17T10:41:17.610Z,99285.25
2024-01-17T10:43:54.679Z,99286.31
2024-01-17T10:46:21.548Z,99271.72
2024-01-17T10:48:48.804Z,99270.97
2024-01-17T10:51:21.394Z,99270.38
2024-01-17T10:53:55.321Z,99269.75
2024-01-17T10:56:24.171Z,99261.28
2024-01-17T10:58:52.575Z,99265.25
2024-01-17T11:01:26.178Z,99262.31
2024-01-17T11:03:57.663Z,99258.38
2024-01-17T11:06:25.377Z,99254.16
2024-01-17T11:08:52.887Z,99256.94
2024-01-17T11:11:20.924Z,99253.84
2024-01-17T11:13:48.519Z,99253.84
2024-01-17T11:16:17.394Z,99251.78
2024-01-17T11:18:47.354Z,99250.53
2024-01-17T11:21:14.172Z,99241.13
2024-01-17T11:23:46.584Z,99229.06
2024-01-17T11:26:45.670Z,99222.53
2024-01-17T11:29:49.331Z,99220.28
2024-01-17T11:32:29.446Z,99218.00
2024-01-17T11:34:55.980Z,99219.25
2024-01-17T11:37:35.670Z,99212.19
2024-01-17T11:40:02.369Z,99211.75
2024-01-17T11:42:28.794Z,99206.56
2024-01-17T11:45:05.424Z,99200.69
2024-01-17T11:47:39.982Z,99198.63
2024-01-17T11:50:06.842Z,99182.78
2024-01-17T11:52:36.957Z,99189.63
2024-01-17T11:55:03.983Z,99178.94
2024-01-17T11:57:36.986Z,99180.06
2024-01-17T12:00:12.510Z,99183.25
2024-01-17T12:02:41.421Z,99171.06
2024-01-17T12:05:09.863Z,99165.97
2024-01-17T12:07:44.768Z,99160.25
2024-01-17T12:10:13.627Z,99156.59
2024-01-17T12:12:45.189Z,99150.34
2024-01-17T12:15:13.543Z,99147.44
2024-01-17T12:17:41.389Z,99137.28
2024-01-17T12:20:08.759Z,99125.56
2024-01-17T12:22:38.870Z,99126.41
2024-01-17T12:25:05.692Z,99122.06
2024-01-17T12:27:34.153Z,99124.19
2024-01-17T12:30:06.151Z,99111.75
2024-01-17T12:32:33.415Z,99114.84
2024-01-17T12:35:00.517Z,99103.13
2024-01-17T12:37:29.074Z,99105.91
2024-01-17T12:39:56.104Z,99089.28
2024-01-17T12:42:22.690Z,99097.31
2024-01-17T12:44:49.546Z,99086.22
2024-01-17T12:47:16.226Z,99075.38
2024-01-17T12:49:45.969Z,99077.72
2024-01-17T12:52:12.521Z,99070.88
2024-01-17T12:54:39.312Z,99070.88
2024-01-17T12:57:05.964Z,99058.38
2024-01-17T12:59:33.324Z,99058.69
2024-01-17T13:01:59.990Z,99042.25
2024-01-17T13:04:26.801Z,99048.50
2024-01-17T13:06:58.626Z,99039.78
2024-01-17T13:09:30.597Z,99047.13
2024-01-17T13:11:57.607Z,99047.50
2024-01-17T13:14:25.622Z,99054.34
2024-01-17T13:16:52.667Z,99046.56
2024-01-17T13:19:19.695Z,99041.88
2024-01-17T13:21:51.212Z,99035.88
2024-01-17T13:24:18.069Z,99037.97
2024-01-17T13:26:45.495Z,99030.56
2024-01-17T13:29:13.951Z,99025.56
2024-01-17T13:31:42.213Z,99024.88
2024-01-17T13:34:08.913Z,99031.59
2024-01-17T13:36:35.710Z,99022.03
2024-01-17T13:39:02.987Z,99025.38
2024-01-17T13:41:32.132Z,99020.19
2024-01-17T13:43:58.806Z,99021.22
2024-01-17T13:46:27.460Z,99016.09
2024-01-17T13:48:54.497Z,99019.03
2024-01-17T13:51:23.583Z,99012.28
2024-01-17T13:53:54.588Z,99017.41
2024-01-17T13:56:21.602Z,99019.88
2024-01-17T13:58:47.991Z,99008.06
2024-01-17T14:01:19.618Z,99008.75
2024-01-17T14:03:47.618Z,99016.34
2024-01-17T14:06:15.536Z,99022.66
2024-01-17T14:08:42.298Z,99023.16
2024-01-17T14:11:09.760Z,99022.72
2024-01-17T14:13:36.213Z,99012.03
2024-01-17T14:16:02.759Z,99004.47
2024-01-17T14:18:29.793Z,99008.31
2024-01-17T14:20:56.740Z,99012.59
2024-01-17T14:23:23.290Z,99016.00
2024-01-17T14:25:49.752Z,99002.56
2024-01-17T14:28:16.718Z,99009.50
2024-01-17T14:30:43.111Z,99000.28
2024-01-17T14:33:09.785Z,99007.84
2024-01-17T14:35:38.807Z,99002.16
2024-01-17T14:38:05.910Z,99002.38
2024-01-17T14:40:32.327Z,99006.41
2024-01-17T14:42:59.047Z,99002.50
2024-01-17T14:45:25.532Z,99001.47
2024-01-17T14:47:52.052Z,99002.69
2024-01-17T14:50:18.650Z,99000.09
2024-01-17T14:52:46.261Z,98990.50
2024-01-17T14:55:12.922Z,98998.81
2024-01-17T14:57:39.463Z,99000.31
2024-01-17T15:00:07.647Z,98998.75
2024-01-17T15:02:34.886Z,98997.81
2024-01-17T15:05:01.649Z,99003.91
2024-01-17T15:07:30.458Z,98996.97
2024-01-17T15:09:57.310Z,98998.03
2024-01-17T15:12:24.149Z,98998.03
2024-01-17T15:14:50.619Z,98990.69
2024-01-17T15:17:17.090Z,98997.84
2024-01-17T15:19:44.667Z,98986.56
2024-01-17T15:22:11.278Z,98995.38
2024-01-17T15:24:38.192Z,99000.03
2024-01-17T15:27:05.691Z,99005.44
2024-01-17T15:29:32.297Z,99005.44
2024-01-17T15:31:59.758Z,99001.81
2024-01-17T15:34:26.204Z,98997.69
2024-01-17T15:36:53.523Z,99003.78
2024-01-17T15:39:20.752Z,99004.75
2024-01-17T15:41:47.775Z,99000.69
2024-01-17T15:44:14.578Z,99006.81
2024-01-17T15:46:41.115Z,99004.22
2024-01-17T15:49:09.362Z,99002.56
2024-01-17T15:51:35.979Z,99004.34
2024-01-17T15:54:02.513Z,99006.81
2024-01-17T15:56:29.052Z,99008.22
2024-01-17T15:58:55.505Z,99008.22
2024-01-17T16:01:21.983Z,99005.56
2024-01-17T16:03:48.419Z,99005.34
2024-01-17T16:06:15.496Z,99013.22
2024-01-17T16:08:42.099Z,99010.50
2024-01-17T16:11:08.573Z,99011.34
2024-01-17T16:13:34.995Z,99011.34
2024-01-17T16:16:02.494Z,99007.81
2024-01-17T16:18:29.024Z,99007.81
2024-01-17T16:20:55.783Z,99016.31
2024-01-17T16:23:22.279Z,99013.72
2024-01-17T16:25:48.733Z,99030.19
2024-01-17T16:28:15.710Z,99023.34
2024-01-17T16:30:45.255Z,99018.97
2024-01-17T16:33:11.868Z,99020.84
2024-01-17T16:35:39.302Z,99014.66
2024-01-17T16:38:05.788Z,99027.69
2024-01-17T16:40:32.251Z,99033.69
2024-01-17T16:42:59.691Z,99026.66
2024-01-17T16:45:26.107Z,99028.09
2024-01-17T16:47:54.960Z,99018.56
2024-01-17T16:50:21.419Z,99028.09
2024-01-17T16:52:48.215Z,99022.81
2024-01-17T16:55:14.783Z,99021.88
2024-01-17T16:57:41.318Z,99028.72
2024-01-17T17:00:11.408Z,99030.34
2024-01-17T17:02:38.122Z,99026.84
2024-01-17T17:05:08.710Z,99026.84
2024-01-17T17:07:37.922Z,99029.53
2024-01-17T17:10:04.867Z,99039.19
2024-01-17T17:12:31.394Z,99033.25
2024-01-17T17:14:58.008Z,99024.78
2024-01-17T17:17:24.589Z,99033.50
2024-01-17T17:19:51.261Z,99033.50
2024-01-17T17:22:24.488Z,99036.06
2024-01-17T17:24:56.728Z,99043.03
2024-01-17T17:27:23.220Z,99035.13
2024-01-17T17:29:49.670Z,99045.28
2024-01-17T17:32:24.410Z,99052.31
2024-01-17T17:34:53.367Z,99047.16
2024-01-17T17:37:22.604Z,99054.78
2024-01-17T17:39:49.107Z,99054.78
2024-01-17T17:42:15.716Z,99057.31
2024-01-17T17:44:42.238Z,99061.44
2024-01-17T17:47:08.771Z,99062.97
2024-01-17T17:49:35.323Z,99059.34
2024-01-17T17:52:01.870Z,99061.81
2024-01-17T17:54:28.367Z,99063.47
2024-01-17T17:56:55.052Z,99062.53
2024-01-17T17:59:21.521Z,99058.28
2024-01-17T18:01:47.913Z,99071.94
2024-01-17T18:04:16.180Z,99071.94
2024-01-17T18:06:42.826Z,99076.94
2024-01-17T18:09:09.868Z,99070.81
2024-01-17T18:11:36.443Z,99086.03
2024-01-17T18:14:03.722Z,99085.91
2024-01-17T18:16:31.201Z,99082.38
2024-01-17T18:18:58.093Z,99075.44
2024-01-17T18:21:24.908Z,99073.59
2024-01-17T18:23:53.087Z,99089.72
2024-01-17T18:26:20.013Z,99089.72
2024-01-17T18:28:47.219Z,99090.44
2024-01-17T18:31:13.781Z,99089.53
2024-01-17T18:33:40.615Z,99100.72
2024-01-17T18:36:07.926Z,99102.38
2024-01-17T18:38:34.712Z,99103.19
2024-01-17T18:41:01.243Z,99098.00
2024-01-17T18:43:28.709Z,99109.31
2024-01-17T18:45:55.811Z,99107.44
2024-01-17T18:48:22.550Z,99106.50
2024-01-17T18:50:49.401Z,99104.00
2024-01-17T18:53:15.925Z,99109.19
2024-01-17T18:55:42.419Z,99112.63
2024-01-17T18:58:13.290Z,99113.56
2024-01-17T19:00:40.165Z,99121.22
2024-01-17T19:03:07.019Z,99120.38
2024-01-17T19:05:34.610Z,99122.97
2024-01-17T19:08:01.177Z,99123.69
2024-01-17T19:10:28.299Z,99123.91
2024-01-17T19:12:54.707Z,99139.47
2024-01-17T19:15:21.275Z,99142.75
2024-01-17T19:17:48.452Z,99143.47
2024-01-17T19:20:15.014Z,99133.22
2024-01-17T19:22:41.432Z,99138.28
2024-01-17T19:25:11.681Z,99140.88
2024-01-17T19:27:38.429Z,99138.41
2024-01-17T19:30:05.919Z,99136.63
2024-01-17T19:32:32.474Z,99149.59
2024-01-17T19:34:58.959Z,99149.59
2024-01-17T19:37:25.437Z,99151.25
2024-01-17T19:39:51.877Z,99142.63
2024-01-17T19:42:18.429Z,99150.53
2024-01-17T19:44:44.853Z,99153.94
2024-01-17T19:47:14.394Z,99157.34
2024-01-17T19:49:40.980Z,99170.31
2024-01-17T19:52:09.588Z,99166.78
2024-01-17T19:54:36.117Z,99162.47
2024-01-17T19:57:02.627Z,99167.63
2024-01-17T19:59:29.100Z,99168.47
2024-01-17T20:01:55.596Z,99178.00
2024-01-17T20:04:24.257Z,99179.66
2024-01-17T20:06:50.724Z,99189.19
2024-01-17T20:09:20.913Z,99189.19
2024-01-17T20:11:47.615Z,99189.19
2024-01-17T20:14:14.089Z,99192.69
2024-01-17T20:16:40.569Z,99188.56
2024-01-17T20:19:08.712Z,99192.19
2024-01-17T20:21:35.868Z,99194.78
2024-01-17T20:24:02.638Z,99207.75
2024-01-17T20:26:29.085Z,99205.34
2024-01-17T20:28:55.575Z,99224.22
2024-01-17T20:31:22.101Z,99219.03
2024-01-17T20:33:48.571Z,99219.13
2024-01-17T20:36:17.596Z,99226.81
2024-01-17T20:38:44.163Z,99225.88
2024-01-17T20:41:15.543Z,99231.06
2024-01-17T20:43:46.144Z,99229.28
2024-01-17T20:46:16.636Z,99230.13
2024-01-17T20:48:43.303Z,99237.88
2024-01-17T20:51:09.966Z,99231.88
2024-01-17T20:53:37.300Z,99240.47
2024-01-17T20:56:07.320Z,99236.00
2024-01-17T20:58:34.295Z,99232.47
2024-01-17T21:01:00.676Z,99231.53
2024-01-17T21:03:27.161Z,99234.13
2024-01-17T21:05:53.654Z,99235.81
2024-01-17T21:08:20.059Z,99239.13
2024-01-17T21:10:50.833Z,99240.78
2024-01-17T21:13:17.493Z,99251.13
2024-01-17T21:15:44.108Z,99250.94
2024-01-17T21:18:11.141Z,99256.13
2024-01-17T21:20:37.623Z,99260.56
2024-01-17T21:23:06.777Z,99266.69
2024-01-17T21:25:33.569Z,99278.69
2024-01-17T21:28:00.039Z,99278.69
2024-01-17T21:30:26.476Z,99289.06
2024-01-17T21:32:53.005Z,99283.88
2024-01-17T21:35:19.567Z,99293.41
2024-01-17T21:37:46.501Z,99291.75
2024-01-17T21:40:13.181Z,99281.50
2024-01-17T21:42:39.916Z,99284.28
2024-01-17T21:45:06.833Z,99294.06
2024-01-17T21:47:33.779Z,99290.72
2024-01-17T21:50:00.319Z,99290.09
2024-01-17T21:52:27.298Z,99293.81
2024-01-17T21:54:55.650Z,99294.22
2024-01-17T21:57:24.958Z,99303.16
2024-01-17T21:59:51.722Z,99303.44
2024-01-17T22:02:18.212Z,99308.75
2024-01-17T22:04:44.635Z,99306.56
2024-01-17T22:07:11.303Z,99302.50
2024-01-17T22:09:37.984Z,99300.31
2024-01-17T22:12:04.864Z,99303.28
2024-01-17T22:14:31.387Z,99312.31
2024-01-17T22:16:57.779Z,99318.59
2024-01-17T22:19:24.294Z,99317.13
2024-01-17T22:21:51.276Z,99330.56
2024-01-17T22:24:17.802Z,99322.25
2024-01-17T22:26:44.797Z,99320.81
2024-01-17T22:29:11.334Z,99327.09
2024-01-17T22:31:37.829Z,99332.50
2024-01-17T22:34:06.124Z,99331.94
2024-01-17T22:36:32.842Z,99342.88
2024-01-17T22:38:59.542Z,99339.19
2024-01-17T22:41:26.949Z,99345.47
2024-01-17T22:43:53.401Z,99350.13
2024-01-17T22:46:19.833Z,99350.41
2024-01-17T22:48:46.351Z,99367.94
2024-01-17T22:51:12.791Z,99364.78
2024-01-17T22:53:39.198Z,99364.88
2024-01-17T22:56:05.828Z,99364.34
2024-01-17T22:58:32.268Z,99367.84
2024-01-17T23:00:58.991Z,99373.13
2024-01-17T23:03:25.576Z,99380.22
2024-01-17T23:05:52.172Z,99375.25
2024-01-17T23:08:18.618Z,99378.19
2024-01-17T23:10:45.215Z,99383.56
2024-01-17T23:13:11.610Z,99381.13
2024-01-17T23:15:38.151Z,99388.16
2024-01-17T23:18:05.488Z,99384.84
2024-01-17T23:20:32.128Z,99381.50
2024-01-17T23:22:58.523Z,99385.00
2024-01-17T23:25:24.973Z,99394.25
2024-01-17T23:27:52.106Z,99397.75
2024-01-17T23:30:19.197Z,99396.91
2024-01-17T23:32:45.695Z,99391.84
2024-01-17T23:35:12.218Z,99404.84
2024-01-17T23:37:38.669Z,99400.69
2024-01-17T23:40:05.673Z,99405.88
2024-01-17T23:42:35.232Z,99404.00
2024-01-17T23:45:03.999Z,99412.50
2024-01-17T23:47:30.446Z,99407.16
2024-01-17T23:49:57.479Z,99414.91
2024-01-17T23:52:24.333Z,99417.50
2024-01-17T23:54:50.807Z,99415.44
2024-01-17T23:57:17.314Z,99423.97
2024-01-17T23:59:45.212Z,99425.44
